createdAt,value
2023-02-25T00:28:47.211Z,0
2023-02-25T00:29:27.683Z,0
2023-02-25T00:30:08.147Z,0
2023-02-25T00:30:48.746Z,0
2023-02-25T00:31:29.226Z,0
2023-02-25T00:32:09.799Z,0
2023-02-25T00:32:50.189Z,0
2023-02-25T00:33:30.556Z,0
2023-02-25T00:34:11.100Z,0
2023-02-25T00:34:51.504Z,0
2023-02-25T00:35:31.965Z,0
2023-02-25T00:42:57.295Z,0
2023-02-25T00:43:37.774Z,0
2023-02-25T00:44:18.294Z,0
2023-02-25T00:44:58.776Z,0
2023-02-25T00:45:39.268Z,0
2023-02-25T00:46:19.894Z,0
2023-02-25T00:47:00.245Z,0
2023-02-25T00:47:40.770Z,0
2023-02-25T00:48:21.269Z,0
2023-02-25T00:49:01.783Z,0
2023-02-25T00:56:27.091Z,0
2023-02-25T00:57:07.544Z,0
2023-02-25T00:57:48.081Z,0
2023-02-25T00:58:28.563Z,0
2023-02-25T00:59:09.006Z,0
2023-02-25T00:59:49.565Z,0
2023-02-25T01:00:31.445Z,0
2023-02-25T01:01:10.529Z,0
2023-02-25T01:01:50.996Z,0
2023-02-25T01:02:31.455Z,0
2023-02-25T01:03:11.910Z,0
2023-02-25T01:09:56.922Z,0
2023-02-25T01:10:37.434Z,0
2023-02-25T01:11:17.888Z,0
2023-02-25T01:11:58.385Z,0
2023-02-25T01:12:38.851Z,0
2023-02-25T01:13:19.342Z,0
2023-02-25T01:13:59.847Z,0
2023-02-25T01:14:40.344Z,0
2023-02-25T01:16:01.373Z,0
2023-02-25T01:16:41.813Z,0
2023-02-25T01:24:07.246Z,0
2023-02-25T01:24:47.734Z,0
2023-02-25T01:25:28.232Z,0
2023-02-25T01:26:08.705Z,0
2023-02-25T01:26:49.240Z,0
2023-02-25T01:27:29.665Z,0
2023-02-25T01:28:10.211Z,0
2023-02-25T01:28:50.679Z,0
2023-02-25T01:29:31.152Z,0
2023-02-25T01:30:11.633Z,0
2023-02-25T01:30:52.210Z,0
2023-02-25T01:37:36.930Z,0
2023-02-25T01:38:17.441Z,0
2023-02-25T01:38:57.969Z,0
2023-02-25T01:39:38.434Z,0
2023-02-25T01:40:18.901Z,0
2023-02-25T01:40:59.387Z,0
2023-02-25T01:41:39.859Z,0
2023-02-25T01:44:54.460Z,0
2023-02-25T01:45:34.123Z,0
2023-02-25T01:46:14.628Z,0
2023-02-25T01:46:55.128Z,0
2023-02-25T01:47:35.575Z,0
2023-02-25T01:48:16.071Z,0
2023-02-25T01:48:56.512Z,0
2023-02-25T01:49:36.986Z,0
2023-02-25T01:50:17.501Z,0
2023-02-25T01:50:57.941Z,0
2023-02-25T01:51:38.508Z,0
2023-02-25T01:57:43.503Z,0
2023-02-25T01:58:24.017Z,0
2023-02-25T01:59:04.501Z,0
2023-02-25T01:59:45.002Z,0
2023-02-25T02:00:25.477Z,0
2023-02-25T02:01:06.041Z,0
2023-02-25T02:01:46.509Z,0
2023-02-25T02:02:27.086Z,0
2023-02-25T02:03:07.448Z,0
2023-02-25T02:03:47.941Z,0
2023-02-25T02:04:28.439Z,0
2023-02-25T02:11:13.217Z,0
2023-02-25T02:11:53.691Z,0
2023-02-25T02:12:34.199Z,0
2023-02-25T02:13:14.666Z,0
2023-02-25T02:13:55.124Z,0
2023-02-25T02:14:35.627Z,0
2023-02-25T02:15:16.090Z,0
2023-02-25T02:15:56.639Z,0
2023-02-25T02:16:37.154Z,0
2023-02-25T02:17:17.582Z,0
2023-02-25T02:17:58.088Z,0
2023-02-25T02:25:23.456Z,0
2023-02-25T02:26:03.950Z,0
2023-02-25T02:26:44.465Z,0
2023-02-25T02:27:24.904Z,0
2023-02-25T02:28:05.409Z,0
2023-02-25T02:28:45.899Z,0
2023-02-25T02:29:26.401Z,0
2023-02-25T02:30:06.840Z,0
2023-02-25T02:30:47.337Z,0
2023-02-25T02:31:27.803Z,0
2023-02-25T02:32:08.450Z,0
2023-02-25T02:39:33.556Z,0
2023-02-25T02:40:14.034Z,0
2023-02-25T02:40:54.515Z,0
2023-02-25T02:41:34.986Z,0
2023-02-25T02:42:15.463Z,0
2023-02-25T02:42:55.944Z,0
2023-02-25T02:43:36.436Z,0
2023-02-25T02:44:16.905Z,0
2023-02-25T02:44:57.378Z,0
2023-02-25T02:45:37.875Z,0
2023-02-25T02:46:18.367Z,0
2023-02-25T02:53:03.978Z,0
2023-02-25T02:53:43.758Z,0
2023-02-25T02:54:24.278Z,0
2023-02-25T02:55:04.753Z,0
2023-02-25T02:55:45.212Z,0
2023-02-25T02:56:25.692Z,0
2023-02-25T02:57:06.271Z,0
2023-02-25T02:57:46.662Z,0
2023-02-25T02:58:27.162Z,0
2023-02-25T02:59:07.835Z,0
2023-02-25T02:59:48.139Z,0
2023-02-25T03:05:28.708Z,0
2023-02-25T03:06:09.117Z,0
2023-02-25T03:06:49.622Z,0
2023-02-25T03:07:30.065Z,0
2023-02-25T03:08:10.649Z,0
2023-02-25T03:08:51.177Z,0
2023-02-25T03:09:31.666Z,0
2023-02-25T03:10:12.178Z,0
2023-02-25T03:10:52.695Z,0
2023-02-25T03:11:33.173Z,0
2023-02-25T03:12:13.644Z,0
2023-02-25T03:18:58.520Z,0
2023-02-25T03:19:39.058Z,0
2023-02-25T03:20:19.524Z,0
2023-02-25T03:21:00.093Z,0
2023-02-25T03:21:40.531Z,0
2023-02-25T03:22:21.006Z,0
2023-02-25T03:23:01.503Z,0
2023-02-25T03:23:42.052Z,0
2023-02-25T03:24:22.579Z,0
2023-02-25T03:25:03.047Z,0
2023-02-25T03:25:43.473Z,0
2023-02-25T03:31:08.426Z,0
2023-02-25T03:31:48.981Z,0
2023-02-25T03:32:29.440Z,0
2023-02-25T03:33:09.786Z,0
2023-02-25T03:33:50.278Z,0
2023-02-25T03:34:30.757Z,0
2023-02-25T03:35:11.217Z,0
2023-02-25T03:35:51.707Z,0
2023-02-25T03:36:32.197Z,0
2023-02-25T03:37:12.711Z,0
2023-02-25T03:37:53.161Z,0
2023-02-25T03:45:18.542Z,0
2023-02-25T03:45:59.017Z,0
2023-02-25T03:46:39.491Z,0
2023-02-25T03:47:19.952Z,0
2023-02-25T03:48:00.477Z,0
2023-02-25T03:48:41.007Z,0
2023-02-25T03:49:21.487Z,0
2023-02-25T03:50:02.012Z,0
2023-02-25T03:50:42.524Z,0
2023-02-25T03:51:23.608Z,0
2023-02-25T03:58:08.594Z,0
2023-02-25T03:58:49.095Z,0
2023-02-25T03:59:29.549Z,0
2023-02-25T04:00:10.030Z,0
2023-02-25T04:00:50.517Z,0
2023-02-25T04:01:30.976Z,0
2023-02-25T04:02:11.579Z,0
2023-02-25T04:02:51.980Z,0
2023-02-25T04:03:32.490Z,0
2023-02-25T04:04:12.996Z,0
2023-02-25T04:04:53.586Z,0
2023-02-25T04:11:38.490Z,0
2023-02-25T04:12:19.012Z,0
2023-02-25T04:12:59.506Z,0
2023-02-25T04:14:20.512Z,0
2023-02-25T04:15:00.992Z,0
2023-02-25T04:15:41.537Z,0
2023-02-25T04:16:22.307Z,0
2023-02-25T04:17:02.592Z,0
2023-02-25T04:17:43.108Z,0
2023-02-25T04:18:23.644Z,0
2023-02-25T04:25:08.488Z,0
2023-02-25T04:25:49.583Z,0
2023-02-25T04:26:29.533Z,0
2023-02-25T04:27:10.034Z,0
2023-02-25T04:27:50.472Z,0
2023-02-25T04:28:30.936Z,0
2023-02-25T04:29:11.468Z,0
2023-02-25T04:29:51.910Z,0
2023-02-25T04:30:34.259Z,0
2023-02-25T04:31:13.139Z,0
2023-02-25T04:31:53.614Z,0
2023-02-25T04:38:38.437Z,0
2023-02-25T04:39:18.882Z,0
2023-02-25T04:39:59.392Z,0
2023-02-25T04:40:39.871Z,0
2023-02-25T04:41:20.355Z,0
2023-02-25T04:42:00.910Z,0
2023-02-25T04:42:41.328Z,0
2023-02-25T04:43:21.826Z,0
2023-02-25T04:44:02.299Z,0
2023-02-25T04:44:42.804Z,0
2023-02-25T04:45:24.681Z,0
2023-02-25T04:52:48.583Z,0
2023-02-25T04:53:29.164Z,0
2023-02-25T04:54:09.590Z,0
2023-02-25T04:54:50.098Z,0
2023-02-25T04:55:30.571Z,0
2023-02-25T04:56:11.037Z,0
2023-02-25T04:56:51.532Z,0
2023-02-25T04:57:32.018Z,0
2023-02-25T04:58:12.484Z,0
2023-02-25T04:58:52.949Z,0
2023-02-25T04:59:33.447Z,0
2023-02-25T05:06:58.745Z,0
2023-02-25T05:07:39.214Z,0
2023-02-25T05:08:19.711Z,0
2023-02-25T05:09:40.681Z,0
2023-02-25T05:10:21.142Z,0
2023-02-25T05:11:01.603Z,0
2023-02-25T05:11:42.159Z,0
2023-02-25T05:12:22.624Z,0
2023-02-25T05:14:50.482Z,0
2023-02-25T05:17:03.595Z,0
2023-02-25T05:17:44.046Z,0
2023-02-25T05:18:24.540Z,0
2023-02-25T05:19:05.044Z,0
2023-02-25T05:19:45.486Z,0
2023-02-25T05:20:25.991Z,0
2023-02-25T05:21:06.490Z,0
2023-02-25T05:21:46.934Z,0
2023-02-25T05:22:27.410Z,0
2023-02-25T05:23:07.878Z,0
2023-02-25T05:23:48.387Z,0
2023-02-25T05:29:53.686Z,0
2023-02-25T05:30:34.116Z,0
2023-02-25T05:31:14.684Z,0
2023-02-25T05:31:55.351Z,0
2023-02-25T05:32:35.617Z,0
2023-02-25T05:33:16.025Z,0
2023-02-25T05:33:56.508Z,0
2023-02-25T05:34:37.014Z,0
2023-02-25T05:35:17.530Z,0
2023-02-25T05:35:58.000Z,0
2023-02-25T05:43:23.410Z,0
2023-02-25T05:44:03.866Z,0
2023-02-25T05:44:44.348Z,0
2023-02-25T05:45:24.846Z,0
2023-02-25T05:46:05.320Z,0
2023-02-25T05:46:45.916Z,0
2023-02-25T05:47:26.312Z,0
2023-02-25T05:48:06.787Z,0
2023-02-25T05:48:47.311Z,0
2023-02-25T05:49:27.755Z,0
2023-02-25T05:50:08.203Z,0
2023-02-25T06:31:11.674Z,16
2023-02-25T06:31:52.214Z,20
2023-02-25T06:32:32.756Z,24
2023-02-25T06:33:13.119Z,24
2023-02-25T06:33:53.622Z,28
2023-02-25T06:34:34.102Z,28
2023-02-25T06:35:14.576Z,32
2023-02-25T06:35:55.080Z,28
2023-02-25T06:36:35.541Z,32
2023-02-25T06:37:16.413Z,32
2023-02-25T06:37:56.570Z,32
2023-02-25T06:44:41.509Z,40
2023-02-25T06:45:22.072Z,44
2023-02-25T06:46:02.623Z,44
2023-02-25T06:46:43.089Z,44
2023-02-25T06:48:04.073Z,44
2023-02-25T06:48:44.594Z,48
2023-02-25T06:49:25.088Z,48
2023-02-25T06:50:05.633Z,48
2023-02-25T06:50:46.053Z,48
2023-02-25T06:51:27.025Z,48
2023-02-25T06:57:31.541Z,56
2023-02-25T06:58:13.209Z,60
2023-02-25T06:58:52.607Z,60
2023-02-25T06:59:33.024Z,60
2023-02-25T07:00:13.533Z,60
2023-02-25T07:00:54.036Z,56
2023-02-25T07:01:34.584Z,64
2023-02-25T07:02:15.055Z,68
2023-02-25T07:02:55.502Z,72
2023-02-25T07:03:36.014Z,72
2023-02-25T07:04:17.582Z,76
2023-02-25T07:11:01.450Z,96
2023-02-25T07:11:41.968Z,100
2023-02-25T07:12:22.428Z,100
2023-02-25T07:13:02.960Z,104
2023-02-25T07:13:43.522Z,108
2023-02-25T07:14:23.919Z,108
2023-02-25T07:15:04.439Z,104
2023-02-25T07:15:45.567Z,108
2023-02-25T07:16:25.659Z,112
2023-02-25T07:17:05.921Z,112
2023-02-25T07:17:46.466Z,112
2023-02-25T07:24:31.325Z,132
2023-02-25T07:25:11.953Z,144
2023-02-25T07:25:52.339Z,148
2023-02-25T07:26:32.817Z,144
2023-02-25T07:27:13.305Z,148
2023-02-25T07:27:53.789Z,148
2023-02-25T07:28:34.298Z,152
2023-02-25T07:29:14.800Z,160
2023-02-25T07:29:55.310Z,164
2023-02-25T07:30:35.790Z,164
2023-02-25T07:31:16.419Z,176
2023-02-25T07:38:41.680Z,292
2023-02-25T07:39:22.133Z,296
2023-02-25T07:40:02.617Z,292
2023-02-25T07:40:43.108Z,300
2023-02-25T07:41:23.849Z,296
2023-02-25T07:42:04.146Z,308
2023-02-25T07:42:44.573Z,320
2023-02-25T07:43:25.077Z,316
2023-02-25T07:44:05.593Z,320
2023-02-25T07:44:46.082Z,320
2023-02-25T07:51:31.814Z,356
2023-02-25T07:52:12.401Z,340
2023-02-25T07:52:52.890Z,352
2023-02-25T07:53:33.407Z,372
2023-02-25T07:54:13.905Z,396
2023-02-25T07:54:54.370Z,416
2023-02-25T07:55:34.861Z,412
2023-02-25T07:56:15.366Z,404
2023-02-25T07:56:55.877Z,400
2023-02-25T07:57:36.354Z,392
2023-02-25T08:04:21.448Z,828
2023-02-25T08:05:01.908Z,924
2023-02-25T08:05:42.360Z,960
2023-02-25T08:06:22.840Z,956
2023-02-25T08:07:03.339Z,960
2023-02-25T08:07:43.871Z,944
2023-02-25T08:08:24.305Z,984
2023-02-25T08:09:04.811Z,1016
2023-02-25T08:09:45.294Z,1032
2023-02-25T08:11:06.296Z,1092
2023-02-25T08:18:31.717Z,1244
2023-02-25T08:19:12.227Z,1204
2023-02-25T08:19:52.714Z,1212
2023-02-25T08:20:33.197Z,1252
2023-02-25T08:21:13.619Z,1204
2023-02-25T08:21:54.111Z,1156
2023-02-25T08:22:34.622Z,1136
2023-02-25T08:23:15.098Z,1140
2023-02-25T08:23:55.583Z,1048
2023-02-25T08:24:36.064Z,992
2023-02-25T08:25:16.546Z,1016
2023-02-25T08:32:01.608Z,1496
2023-02-25T08:32:42.238Z,1476
2023-02-25T08:33:22.472Z,1424
2023-02-25T08:34:02.934Z,1376
2023-02-25T08:34:43.460Z,1312
2023-02-25T08:35:24.088Z,1224
2023-02-25T08:36:04.569Z,1172
2023-02-25T08:36:45.011Z,1120
2023-02-25T08:37:25.491Z,1132
2023-02-25T08:38:05.989Z,1204
2023-02-25T08:38:46.486Z,1292
2023-02-25T08:45:31.349Z,1756
2023-02-25T08:46:11.913Z,1688
2023-02-25T08:46:52.411Z,1308
2023-02-25T08:47:32.923Z,968
2023-02-25T08:48:14.037Z,756
2023-02-25T08:48:54.491Z,620
2023-02-25T08:49:34.987Z,448
2023-02-25T08:50:15.484Z,416
2023-02-25T08:50:56.079Z,384
2023-02-25T08:51:36.541Z,404
2023-02-25T08:58:24.334Z,1024
2023-02-25T08:59:05.144Z,928
2023-02-25T08:59:45.591Z,916
2023-02-25T09:00:26.744Z,936
2023-02-25T09:01:08.156Z,940
2023-02-25T09:03:14.097Z,1328
2023-02-25T09:19:56.417Z,528
2023-02-25T09:20:36.856Z,608
2023-02-25T09:21:17.359Z,592
2023-02-25T09:21:57.885Z,552
2023-02-25T09:22:38.376Z,544
2023-02-25T09:23:18.890Z,504
2023-02-25T09:23:59.429Z,452
2023-02-25T09:24:39.890Z,360
2023-02-25T09:25:20.437Z,348
2023-02-25T09:26:00.917Z,400
2023-02-25T09:26:41.441Z,492
2023-02-25T09:33:26.494Z,592
2023-02-25T09:35:41.862Z,972
2023-02-25T09:45:03.932Z,708
2023-02-25T09:45:44.460Z,872
2023-02-25T09:46:24.898Z,876
2023-02-25T09:47:05.379Z,1056
2023-02-25T09:47:45.976Z,1188
2023-02-25T09:48:26.402Z,1172
2023-02-25T09:49:06.887Z,1100
2023-02-25T09:49:47.441Z,952
2023-02-25T09:50:27.925Z,976
2023-02-25T09:51:08.539Z,916
2023-02-25T09:51:48.969Z,852
2023-02-25T09:58:33.873Z,360
2023-02-25T09:59:14.396Z,420
2023-02-25T09:59:54.836Z,448
2023-02-25T10:00:35.353Z,508
2023-02-25T10:01:15.831Z,528
2023-02-25T10:01:56.390Z,476
2023-02-25T10:02:37.055Z,424
2023-02-25T10:03:17.456Z,368
2023-02-25T10:03:57.823Z,348
2023-02-25T10:04:38.399Z,452
2023-02-25T10:05:18.873Z,468
2023-02-25T10:12:03.888Z,384
2023-02-25T10:12:44.382Z,384
2023-02-25T10:13:24.903Z,400
2023-02-25T10:14:05.466Z,416
2023-02-25T10:14:45.944Z,388
2023-02-25T10:15:26.462Z,408
2023-02-25T10:16:06.965Z,408
2023-02-25T10:16:47.565Z,460
2023-02-25T10:17:28.080Z,620
2023-02-25T10:18:08.557Z,792
2023-02-25T10:24:53.704Z,1160
2023-02-25T10:25:34.200Z,1104
2023-02-25T10:26:14.741Z,1088
2023-02-25T10:26:55.245Z,1124
2023-02-25T10:27:35.782Z,1104
2023-02-25T10:28:16.328Z,1076
2023-02-25T10:28:56.831Z,984
2023-02-25T10:29:37.326Z,892
2023-02-25T10:30:17.856Z,868
2023-02-25T10:30:58.503Z,928
2023-02-25T10:31:39.006Z,1020
2023-02-25T10:38:23.870Z,948
2023-02-25T10:39:04.396Z,1032
2023-02-25T10:39:44.903Z,1016
2023-02-25T10:40:25.414Z,928
2023-02-25T10:41:05.856Z,904
2023-02-25T10:41:46.367Z,976
2023-02-25T10:42:26.871Z,1092
2023-02-25T10:43:07.419Z,1220
2023-02-25T10:43:47.857Z,1424
2023-02-25T10:44:28.435Z,1420
2023-02-25T10:45:08.902Z,1308
2023-02-25T10:51:54.147Z,1264
2023-02-25T10:52:34.643Z,1228
2023-02-25T10:53:15.088Z,1208
2023-02-25T10:53:55.615Z,1244
2023-02-25T10:54:36.102Z,1260
2023-02-25T10:55:16.642Z,1308
2023-02-25T10:55:57.106Z,1296
2023-02-25T10:56:37.675Z,1364
2023-02-25T10:57:18.158Z,1468
2023-02-25T10:57:58.661Z,1544
2023-02-25T11:04:43.609Z,1440
2023-02-25T11:05:24.119Z,1192
2023-02-25T11:06:04.596Z,996
2023-02-25T11:06:45.130Z,960
2023-02-25T11:07:25.604Z,864
2023-02-25T11:08:06.172Z,684
2023-02-25T11:09:27.183Z,392
2023-02-25T11:10:07.708Z,340
2023-02-25T11:10:48.197Z,300
2023-02-25T11:11:30.992Z,280
2023-02-25T11:18:13.620Z,640
2023-02-25T11:18:54.164Z,620
2023-02-25T11:19:34.663Z,500
2023-02-25T11:20:15.137Z,472
2023-02-25T11:20:55.620Z,476
2023-02-25T11:21:36.144Z,448
2023-02-25T11:22:16.694Z,388
2023-02-25T11:22:57.176Z,404
2023-02-25T11:23:37.683Z,400
2023-02-25T11:24:18.265Z,388
2023-02-25T11:24:58.809Z,364
2023-02-25T11:31:43.886Z,668
2023-02-25T11:32:24.306Z,744
2023-02-25T11:33:04.777Z,808
2023-02-25T11:33:45.272Z,840
2023-02-25T11:34:25.770Z,936
2023-02-25T11:35:06.240Z,1080
2023-02-25T11:35:46.708Z,1088
2023-02-25T11:36:27.332Z,1144
2023-02-25T11:37:07.867Z,1200
2023-02-25T11:37:48.254Z,1168
2023-02-25T11:38:28.679Z,1316
2023-02-25T11:45:54.067Z,1236
2023-02-25T11:46:34.630Z,1128
2023-02-25T11:47:15.089Z,1152
2023-02-25T11:47:55.539Z,1180
2023-02-25T11:48:36.035Z,1144
2023-02-25T11:49:16.623Z,976
2023-02-25T11:49:57.654Z,820
2023-02-25T11:50:38.186Z,1044
2023-02-25T11:51:18.805Z,1012
2023-02-25T12:32:44.798Z,1060
2023-02-25T12:33:35.275Z,1204
2023-02-25T12:34:16.219Z,1136
2023-02-25T12:34:56.731Z,1020
2023-02-25T12:37:04.970Z,1044
2023-02-25T12:37:45.477Z,836
2023-02-25T12:38:25.983Z,1032
2023-02-25T12:39:06.502Z,1188
2023-02-25T12:39:46.978Z,1192
2023-02-25T12:40:27.463Z,776
2023-02-25T12:41:07.968Z,740
2023-02-25T12:41:48.516Z,972
2023-02-25T12:42:29.011Z,856
2023-02-25T12:43:09.493Z,920
2023-02-25T12:49:54.542Z,1036
2023-02-25T12:50:35.103Z,1060
2023-02-25T12:51:15.562Z,892
2023-02-25T12:51:56.054Z,976
2023-02-25T12:52:36.700Z,1100
2023-02-25T12:53:17.182Z,1124
2023-02-25T12:53:57.657Z,1028
2023-02-25T12:54:38.187Z,908
2023-02-25T12:55:18.685Z,928
2023-02-25T12:55:59.202Z,984
2023-02-25T12:56:39.725Z,988
2023-02-25T13:03:24.979Z,696
2023-02-25T13:04:05.492Z,712
2023-02-25T13:04:45.977Z,792
2023-02-25T13:05:26.463Z,756
2023-02-25T13:06:07.029Z,728
2023-02-25T13:06:47.523Z,824
2023-02-25T13:07:28.081Z,740
2023-02-25T13:08:08.567Z,652
2023-02-25T13:08:49.050Z,640
2023-02-25T13:09:29.549Z,628
2023-02-25T13:16:14.772Z,700
2023-02-25T13:16:55.266Z,920
2023-02-25T13:17:35.934Z,1020
2023-02-25T13:18:16.435Z,1028
2023-02-25T13:18:56.982Z,1052
2023-02-25T13:19:37.540Z,1008
2023-02-25T13:20:18.054Z,988
2023-02-25T13:20:58.599Z,992
2023-02-25T13:21:39.084Z,980
2023-02-25T13:22:19.684Z,968
2023-02-25T13:29:04.679Z,1096
2023-02-25T13:29:45.187Z,1136
2023-02-25T13:30:25.710Z,1200
2023-02-25T13:31:06.183Z,1292
2023-02-25T13:31:46.878Z,1432
2023-02-25T13:32:27.359Z,1576
2023-02-25T13:33:07.730Z,1376
2023-02-25T13:33:48.221Z,1384
2023-02-25T13:34:28.719Z,1408
2023-02-25T13:35:09.214Z,1632
2023-02-25T13:35:49.740Z,1384
2023-02-25T13:42:34.780Z,988
2023-02-25T13:43:15.354Z,932
2023-02-25T13:43:55.768Z,916
2023-02-25T13:44:36.338Z,1048
2023-02-25T13:45:16.768Z,1052
2023-02-25T13:45:57.374Z,1052
2023-02-25T13:46:37.796Z,1008
2023-02-25T13:47:18.280Z,848
2023-02-25T13:47:58.834Z,796
2023-02-25T13:48:39.237Z,848
2023-02-25T13:49:19.796Z,804
2023-02-25T13:56:04.798Z,688
2023-02-25T13:56:45.321Z,616
2023-02-25T13:57:25.793Z,560
2023-02-25T13:58:06.361Z,524
2023-02-25T13:58:46.781Z,512
2023-02-25T13:59:27.329Z,500
2023-02-25T14:00:07.784Z,492
2023-02-25T14:00:48.308Z,492
2023-02-25T14:01:28.900Z,496
2023-02-25T14:02:09.342Z,508
2023-02-25T14:02:49.833Z,524
2023-02-25T14:09:34.890Z,800
2023-02-25T14:10:15.332Z,808
2023-02-25T14:10:55.892Z,816
2023-02-25T14:11:36.370Z,828
2023-02-25T14:12:16.861Z,852
2023-02-25T14:12:57.410Z,892
2023-02-25T14:13:37.968Z,952
2023-02-25T14:14:18.493Z,932
2023-02-25T14:14:58.970Z,908
2023-02-25T14:22:24.575Z,816
2023-02-25T14:23:05.042Z,852
2023-02-25T14:23:45.688Z,936
2023-02-25T14:24:26.060Z,1132
2023-02-25T14:25:06.588Z,1064
2023-02-25T14:25:47.099Z,1004
2023-02-25T14:26:27.808Z,1024
2023-02-25T14:27:08.277Z,980
2023-02-25T14:27:48.759Z,992
2023-02-25T14:28:29.272Z,860
2023-02-25T14:29:09.733Z,860
2023-02-25T14:35:54.768Z,552
2023-02-25T14:36:35.294Z,552
2023-02-25T14:37:15.773Z,560
2023-02-25T14:37:56.345Z,560
2023-02-25T14:38:36.816Z,564
2023-02-25T14:39:17.290Z,588
2023-02-25T14:39:57.847Z,724
2023-02-25T14:40:38.303Z,596
2023-02-25T14:41:18.776Z,596
2023-02-25T14:41:59.272Z,600
2023-02-25T14:42:39.777Z,608
2023-02-25T14:49:26.663Z,920
2023-02-25T14:50:05.192Z,952
2023-02-25T14:50:45.687Z,956
2023-02-25T14:51:26.275Z,952
2023-02-25T14:52:06.714Z,856
2023-02-25T14:52:47.253Z,816
2023-02-25T14:53:27.686Z,800
2023-02-25T14:54:08.142Z,812
2023-02-25T14:54:48.617Z,792
2023-02-25T14:55:29.110Z,788
2023-02-25T14:56:09.664Z,668
2023-02-25T15:02:54.779Z,740
2023-02-25T15:05:07.711Z,736
2023-02-25T15:05:48.215Z,732
2023-02-25T15:06:28.701Z,732
2023-02-25T15:07:09.227Z,732
2023-02-25T15:10:31.979Z,752
2023-02-25T15:11:12.461Z,752
2023-02-25T15:11:53.015Z,756
2023-02-25T15:12:33.508Z,760
2023-02-25T15:13:14.033Z,756
2023-02-25T15:13:54.544Z,760
2023-02-25T15:14:35.090Z,768
2023-02-25T15:15:15.605Z,780
2023-02-25T15:15:56.119Z,788
2023-02-25T15:16:36.621Z,812
2023-02-25T15:17:17.164Z,888
2023-02-25T15:23:21.843Z,1024
2023-02-25T15:24:03.212Z,1568
2023-02-25T15:24:43.733Z,3136
2023-02-25T15:25:24.230Z,856
2023-02-25T15:26:04.734Z,2356
2023-02-25T15:26:45.218Z,656
2023-02-25T15:27:25.730Z,1344
2023-02-25T15:28:06.497Z,3628
2023-02-25T15:28:46.955Z,3552
2023-02-25T15:34:11.799Z,588
2023-02-25T15:34:52.783Z,1436
2023-02-25T15:35:32.884Z,1028
2023-02-25T15:36:13.393Z,628
2023-02-25T15:36:54.715Z,616
2023-02-25T15:37:35.216Z,1068
2023-02-25T15:38:15.863Z,564
2023-02-25T15:38:56.261Z,572
2023-02-25T15:39:36.793Z,552
2023-02-25T15:46:21.948Z,548
2023-02-25T15:47:02.480Z,536
2023-02-25T15:47:42.962Z,1184
2023-02-25T15:48:23.428Z,1152
2023-02-25T15:49:03.967Z,1124
2023-02-25T15:49:44.478Z,1072
2023-02-25T15:50:24.992Z,996
2023-02-25T15:51:05.511Z,1056
2023-02-25T15:51:46.025Z,1004
2023-02-25T15:52:26.665Z,936
2023-02-25T15:53:07.089Z,876
2023-02-25T15:57:51.965Z,600
2023-02-25T15:58:32.454Z,560
2023-02-25T15:59:12.948Z,576
2023-02-25T15:59:53.435Z,564
2023-02-25T16:00:34.078Z,552
2023-02-25T16:01:14.605Z,524
2023-02-25T16:01:55.107Z,536
2023-02-25T16:02:35.542Z,508
2023-02-25T16:03:16.095Z,488
2023-02-25T16:03:56.752Z,508
2023-02-25T16:09:22.929Z,488
2023-02-25T16:10:05.689Z,488
2023-02-25T16:10:46.324Z,480
2023-02-25T16:11:26.995Z,472
2023-02-25T16:15:32.534Z,444
2023-02-25T16:16:12.348Z,436
2023-02-25T16:16:52.794Z,432
2023-02-25T16:17:33.301Z,424
2023-02-25T16:18:14.026Z,420
2023-02-25T16:23:42.003Z,380
2023-02-25T16:24:22.444Z,376
2023-02-25T16:25:02.991Z,368
2023-02-25T16:25:43.499Z,364
2023-02-25T16:26:24.001Z,360
2023-02-25T16:27:06.399Z,356
2023-02-25T16:27:46.917Z,348
2023-02-25T16:31:52.014Z,312
2023-02-25T16:32:33.458Z,312
2023-02-25T16:33:14.040Z,304
2023-02-25T16:33:57.793Z,300
2023-02-25T16:34:43.361Z,292
2023-02-25T16:36:41.262Z,276
2023-02-25T16:37:21.701Z,272
2023-02-25T16:38:02.140Z,264
2023-02-25T16:38:42.648Z,260
2023-02-25T16:39:23.153Z,252
2023-02-25T16:40:03.644Z,248
2023-02-25T16:46:49.503Z,188
2023-02-25T16:47:30.025Z,184
2023-02-25T16:48:10.595Z,176
2023-02-25T16:48:51.069Z,172
2023-02-25T16:49:31.590Z,164
2023-02-25T16:50:12.125Z,160
2023-02-25T16:50:52.595Z,152
2023-02-25T16:51:33.109Z,148
2023-02-25T16:52:13.583Z,140
2023-02-25T16:57:38.504Z,100
2023-02-25T16:58:19.059Z,96
2023-02-25T16:58:59.521Z,92
2023-02-25T16:59:40.090Z,84
2023-02-25T17:00:20.584Z,80
2023-02-25T17:01:01.088Z,76
2023-02-25T17:01:41.614Z,72
2023-02-25T17:02:22.049Z,68
2023-02-25T17:03:02.527Z,60
2023-02-25T17:03:43.162Z,60
2023-02-25T17:13:41.710Z,16
2023-02-25T17:14:22.313Z,20
2023-02-25T17:15:02.749Z,16
2023-02-25T17:15:43.218Z,12
2023-02-25T17:16:23.991Z,12
2023-02-25T17:17:04.259Z,8
2023-02-25T17:17:44.656Z,8
2023-02-25T17:18:25.213Z,8
2023-02-25T17:19:05.670Z,8
2023-02-25T17:19:46.206Z,4
2023-02-25T17:20:26.669Z,8
2023-02-25T17:27:11.558Z,4
2023-02-25T17:27:52.081Z,0
2023-02-25T17:28:32.575Z,0
2023-02-25T17:29:13.088Z,0
2023-02-25T17:29:53.563Z,4
2023-02-25T17:30:34.196Z,4
2023-02-25T17:31:14.707Z,0
2023-02-25T17:31:55.148Z,0
2023-02-25T17:32:35.589Z,0
2023-02-25T17:33:16.131Z,0
2023-02-25T17:33:56.601Z,0
2023-02-25T17:40:41.499Z,0
2023-02-25T17:41:21.993Z,0
2023-02-25T17:42:02.495Z,0
2023-02-25T17:42:42.979Z,0
2023-02-25T17:43:23.444Z,0
2023-02-25T17:44:03.923Z,0
2023-02-25T17:44:44.405Z,0
2023-02-25T17:45:24.838Z,0
2023-02-25T17:46:05.389Z,0
2023-02-25T17:46:45.875Z,0
2023-02-25T17:47:26.352Z,0
2023-02-25T18:34:14.775Z,0
2023-02-25T18:34:55.173Z,0
2023-02-25T18:35:35.641Z,0
2023-02-25T18:36:16.121Z,0
2023-02-25T18:36:56.614Z,0
2023-02-25T18:37:37.099Z,0
2023-02-25T18:38:17.593Z,0
2023-02-25T18:38:58.081Z,0
2023-02-25T18:39:38.545Z,0
2023-02-25T18:40:19.041Z,0
2023-02-25T18:40:59.509Z,0
2023-02-25T18:48:24.882Z,0
2023-02-25T18:49:05.401Z,0
2023-02-25T18:49:45.864Z,0
2023-02-25T18:50:26.371Z,0
2023-02-25T18:51:06.880Z,0
2023-02-25T18:54:20.524Z,0
2023-02-25T18:55:00.986Z,0
2023-02-25T18:55:41.505Z,0
2023-02-25T18:56:22.214Z,0
2023-02-25T18:57:02.531Z,0
2023-02-25T18:57:42.991Z,0
2023-02-25T18:58:23.497Z,0
2023-02-25T18:59:03.968Z,0
2023-02-25T18:59:44.451Z,0
2023-02-25T19:00:24.921Z,0
2023-02-25T19:01:05.448Z,0
2023-02-25T19:07:50.336Z,0
2023-02-25T19:08:30.830Z,0
2023-02-25T19:09:11.433Z,0
2023-02-25T19:09:51.805Z,0
2023-02-25T19:10:32.276Z,0
2023-02-25T19:11:12.794Z,0
2023-02-25T19:11:53.269Z,0
2023-02-25T19:12:33.751Z,0
2023-02-25T19:13:14.253Z,0
2023-02-25T19:13:54.736Z,0
2023-02-25T19:21:20.273Z,0
2023-02-25T19:22:00.773Z,0
2023-02-25T19:22:41.200Z,0
2023-02-25T19:23:21.667Z,0
2023-02-25T19:24:02.139Z,0
2023-02-25T19:24:42.650Z,0
2023-02-25T19:25:23.140Z,0
2023-02-25T19:26:03.631Z,0
2023-02-25T19:26:44.134Z,0
2023-02-25T19:27:24.625Z,0
2023-02-25T19:28:05.122Z,0
2023-02-25T19:35:47.191Z,0
2023-02-25T19:36:27.767Z,0
2023-02-25T19:37:08.279Z,0
2023-02-25T19:37:48.780Z,0
2023-02-25T19:38:29.253Z,0
2023-02-25T19:39:09.748Z,0
2023-02-25T19:39:50.211Z,0
2023-02-25T19:40:30.697Z,0
2023-02-25T19:41:11.185Z,0
2023-02-25T19:41:51.702Z,0
2023-02-25T19:42:32.220Z,0
2023-02-25T19:49:17.100Z,0
2023-02-25T19:49:57.565Z,0
2023-02-25T19:50:38.062Z,0
2023-02-25T19:51:18.565Z,0
2023-02-25T19:51:59.963Z,0
2023-02-25T19:52:40.487Z,0
2023-02-25T19:53:21.096Z,0
2023-02-25T19:54:01.527Z,0
2023-02-25T19:54:41.994Z,0
2023-02-25T20:02:07.463Z,0
2023-02-25T20:02:47.898Z,0
2023-02-25T20:03:28.394Z,0
2023-02-25T20:04:08.899Z,0
2023-02-25T20:04:49.387Z,0
2023-02-25T20:05:29.898Z,0
2023-02-25T20:06:12.269Z,0
2023-02-25T20:06:50.877Z,0
2023-02-25T20:07:31.340Z,0
2023-02-25T20:08:11.828Z,0
2023-02-25T20:08:52.328Z,0
2023-02-25T20:15:37.194Z,0
2023-02-25T20:16:17.753Z,0
2023-02-25T20:16:58.198Z,0
2023-02-25T20:17:38.685Z,0
2023-02-25T20:18:19.185Z,0
2023-02-25T20:18:59.699Z,0
2023-02-25T20:19:40.206Z,0
2023-02-25T20:20:20.666Z,0
2023-02-25T20:21:01.121Z,0
2023-02-25T20:21:41.626Z,0
2023-02-25T20:22:22.197Z,0
2023-02-25T20:29:47.449Z,0
2023-02-25T20:30:27.919Z,0